createdAt,value
2022-09-13T00:02:13.025Z,20.24
2022-09-13T00:04:41.113Z,20.23
2022-09-13T00:07:08.713Z,20.23
2022-09-13T00:09:37.534Z,20.22
2022-09-13T00:12:05.529Z,20.20
2022-09-13T00:14:34.629Z,20.20
2022-09-13T00:17:02.278Z,20.18
2022-09-13T00:19:29.897Z,20.19
2022-09-13T00:21:57.533Z,20.18
2022-09-13T00:24:25.263Z,20.16
2022-09-13T00:26:52.895Z,20.15
2022-09-13T00:29:20.497Z,20.15
2022-09-13T00:31:49.504Z,20.14
2022-09-13T00:34:17.341Z,20.10
2022-09-13T00:36:45.035Z,20.13
2022-09-13T00:39:13.466Z,20.12
2022-09-13T00:41:41.391Z,20.13
2022-09-13T00:44:42.059Z,20.12
2022-09-13T00:47:13.502Z,20.12
2022-09-13T00:49:43.147Z,20.09
2022-09-13T00:52:17.100Z,20.10
2022-09-13T00:54:48.800Z,20.09
2022-09-13T00:57:19.587Z,20.08
2022-09-13T00:59:52.931Z,20.08
2022-09-13T01:02:22.558Z,20.07
2022-09-13T01:04:50.474Z,20.06
2022-09-13T01:07:19.196Z,20.06
2022-09-13T01:09:52.276Z,20.04
2022-09-13T01:12:31.907Z,20.01
2022-09-13T01:15:01.908Z,20.03
2022-09-13T01:17:33.031Z,20.02
2022-09-13T01:20:01.725Z,20.00
2022-09-13T01:22:52.387Z,20.00
2022-09-13T01:26:02.361Z,19.99
2022-09-13T01:28:54.651Z,19.98
2022-09-13T01:31:31.200Z,19.97
2022-09-13T01:34:21.153Z,19.96
2022-09-13T01:37:04.201Z,19.95
2022-09-13T01:39:50.517Z,19.95
2022-09-13T01:42:28.447Z,19.93
2022-09-13T01:45:08.526Z,19.93
2022-09-13T01:47:45.976Z,19.91
2022-09-13T01:50:21.178Z,19.91
2022-09-13T01:52:55.206Z,19.88
2022-09-13T01:55:34.114Z,19.90
2022-09-13T01:58:10.314Z,19.88
2022-09-13T02:00:45.590Z,19.86
2022-09-13T02:03:18.398Z,19.87
2022-09-13T02:05:51.104Z,19.86
2022-09-13T02:08:23.092Z,19.86
2022-09-13T02:10:54.219Z,19.85
2022-09-13T02:13:25.798Z,19.83
2022-09-13T02:15:59.193Z,19.82
2022-09-13T02:18:33.411Z,19.81
2022-09-13T02:21:07.164Z,19.82
2022-09-13T02:23:42.334Z,19.81
2022-09-13T02:26:12.624Z,19.81
2022-09-13T02:28:45.006Z,19.79
2022-09-13T02:31:14.231Z,19.79
2022-09-13T02:33:48.143Z,19.79
2022-09-13T02:36:20.806Z,19.78
2022-09-13T02:38:55.761Z,19.77
2022-09-13T02:41:29.727Z,19.76
2022-09-13T02:44:04.780Z,19.76
2022-09-13T02:46:47.985Z,19.76
2022-09-13T02:49:26.471Z,19.76
2022-09-13T02:51:58.398Z,19.75
2022-09-13T02:54:34.475Z,19.75
2022-09-13T02:57:07.398Z,19.74
2022-09-13T02:59:35.199Z,19.73
2022-09-13T03:02:08.062Z,19.73
2022-09-13T03:04:37.183Z,19.73
2022-09-13T03:07:07.674Z,19.71
2022-09-13T03:09:35.603Z,19.70
2022-09-13T03:12:20.537Z,19.69
2022-09-13T03:14:56.578Z,19.68
2022-09-13T03:17:37.898Z,19.68
2022-09-13T03:20:13.377Z,19.67
2022-09-13T03:23:11.778Z,19.66
2022-09-13T03:25:58.319Z,19.65
2022-09-13T03:28:35.614Z,19.64
2022-09-13T03:31:08.046Z,19.63
2022-09-13T03:33:45.109Z,19.63
2022-09-13T03:36:18.251Z,19.61
2022-09-13T03:38:56.151Z,19.62
2022-09-13T03:41:28.277Z,19.60
2022-09-13T03:44:00.190Z,19.60
2022-09-13T03:46:32.021Z,19.60
2022-09-13T03:49:04.150Z,19.58
2022-09-13T03:51:34.542Z,19.58
2022-09-13T03:54:06.024Z,19.57
2022-09-13T03:56:33.786Z,19.56
2022-09-13T03:59:01.611Z,19.57
2022-09-13T04:01:29.434Z,19.55
2022-09-13T04:03:57.292Z,19.56
2022-09-13T04:06:25.165Z,19.55
2022-09-13T04:08:54.201Z,19.54
2022-09-13T04:11:22.147Z,19.53
2022-09-13T04:13:49.959Z,19.53
2022-09-13T04:16:17.791Z,19.53
2022-09-13T04:18:45.435Z,19.52
2022-09-13T04:21:13.077Z,19.53
2022-09-13T04:23:40.735Z,19.52
2022-09-13T04:26:10.629Z,19.52
2022-09-13T04:28:38.300Z,19.50
2022-09-13T04:31:06.248Z,19.50
2022-09-13T04:33:33.877Z,19.50
2022-09-13T04:36:02.048Z,19.41
2022-09-13T04:38:31.929Z,19.49
2022-09-13T04:40:59.632Z,19.44
2022-09-13T04:43:28.651Z,19.47
2022-09-13T04:46:00.745Z,19.48
2022-09-13T04:48:28.622Z,19.47
2022-09-13T04:51:02.339Z,19.46
2022-09-13T04:53:30.031Z,19.45
2022-09-13T04:56:02.353Z,19.45
2022-09-13T04:58:31.391Z,19.43
2022-09-13T05:01:02.437Z,19.43
2022-09-13T05:03:31.236Z,19.39
2022-09-13T05:06:03.135Z,19.42
2022-09-13T05:08:31.967Z,19.41
2022-09-13T05:10:59.931Z,19.41
2022-09-13T05:13:28.178Z,19.41
2022-09-13T05:15:57.939Z,19.40
2022-09-13T05:18:27.792Z,19.39
2022-09-13T05:20:56.261Z,19.39
2022-09-13T05:23:24.451Z,19.38
2022-09-13T05:25:54.876Z,19.36
2022-09-13T05:28:22.643Z,19.37
2022-09-13T05:30:58.866Z,19.33
2022-09-13T05:33:27.618Z,19.34
2022-09-13T05:35:55.449Z,19.33
2022-09-13T05:38:23.527Z,19.33
2022-09-13T05:40:56.263Z,19.34
2022-09-13T05:43:25.210Z,19.32
2022-09-13T05:46:03.233Z,19.32
2022-09-13T05:48:31.384Z,19.32
2022-09-13T05:51:05.961Z,19.32
2022-09-13T05:53:33.718Z,19.30
2022-09-13T05:56:01.806Z,19.30
2022-09-13T05:58:29.481Z,19.30
2022-09-13T06:00:58.127Z,19.30
2022-09-13T06:03:27.363Z,19.29
2022-09-13T06:05:56.722Z,19.29
2022-09-13T06:08:24.745Z,19.29
2022-09-13T06:10:57.088Z,19.28
2022-09-13T06:13:25.647Z,19.28
2022-09-13T06:15:53.710Z,19.28
2022-09-13T06:18:21.692Z,19.28
2022-09-13T06:20:51.874Z,19.29
2022-09-13T06:23:19.497Z,19.28
2022-09-13T06:25:47.123Z,19.30
2022-09-13T06:28:14.810Z,19.28
2022-09-13T06:30:42.469Z,19.28
2022-09-13T06:33:10.087Z,19.28
2022-09-13T06:35:38.234Z,19.28
2022-09-13T06:38:07.182Z,19.28
2022-09-13T06:40:34.848Z,19.27
2022-09-13T06:43:02.573Z,19.28
2022-09-13T06:45:30.345Z,19.29
2022-09-13T06:47:58.022Z,19.28
2022-09-13T06:50:25.992Z,19.28
2022-09-13T06:52:53.635Z,19.28
2022-09-13T06:55:22.650Z,19.29
2022-09-13T06:57:50.270Z,19.28
2022-09-13T07:00:18.415Z,19.28
2022-09-13T07:02:46.029Z,19.29
2022-09-13T07:05:13.678Z,19.29
2022-09-13T07:07:41.330Z,19.29
2022-09-13T07:10:10.087Z,19.29
2022-09-13T07:12:41.715Z,19.28
2022-09-13T07:15:10.242Z,19.29
2022-09-13T07:17:37.863Z,19.29
2022-09-13T07:20:08.769Z,19.28
2022-09-13T07:22:36.397Z,19.30
2022-09-13T07:25:04.039Z,19.30
2022-09-13T07:27:32.169Z,19.31
2022-09-13T07:30:01.194Z,19.29
2022-09-13T07:32:28.860Z,19.31
2022-09-13T07:34:56.486Z,19.33
2022-09-13T07:37:24.152Z,19.31
2022-09-13T07:39:51.848Z,19.34
2022-09-13T07:42:19.542Z,19.33
2022-09-13T07:44:47.188Z,19.33
2022-09-13T07:47:16.198Z,19.33
2022-09-13T07:49:43.827Z,19.33
2022-09-13T07:52:11.472Z,19.35
2022-09-13T07:54:39.130Z,19.35
2022-09-13T07:57:06.751Z,19.35
2022-09-13T07:59:34.390Z,19.35
2022-09-13T08:02:02.246Z,19.36
2022-09-13T08:04:35.689Z,19.37
2022-09-13T08:07:04.054Z,19.38
2022-09-13T08:09:31.706Z,19.39
2022-09-13T08:11:59.335Z,19.39
2022-09-13T08:14:27.018Z,19.39
2022-09-13T08:16:56.759Z,19.40
2022-09-13T08:19:24.390Z,19.41
2022-09-13T08:21:53.353Z,19.43
2022-09-13T08:24:22.542Z,19.43
2022-09-13T08:26:51.952Z,19.45
2022-09-13T08:29:19.803Z,19.48
2022-09-13T08:31:47.494Z,19.48
2022-09-13T08:34:18.080Z,19.50
2022-09-13T08:36:46.026Z,19.52
2022-09-13T08:39:15.103Z,19.54
2022-09-13T08:42:00.439Z,19.56
2022-09-13T08:44:31.101Z,19.57
2022-09-13T08:47:05.273Z,19.58
2022-09-13T08:49:37.236Z,19.60
2022-09-13T08:52:18.683Z,19.62
2022-09-13T08:54:47.758Z,19.64
2022-09-13T08:57:19.487Z,19.65
2022-09-13T08:59:55.432Z,19.68
2022-09-13T09:02:42.073Z,19.69
2022-09-13T09:05:17.118Z,19.72
2022-09-13T09:07:48.344Z,19.74
2022-09-13T09:10:21.339Z,19.75
2022-09-13T09:12:53.868Z,19.78
2022-09-13T09:15:23.911Z,19.80
2022-09-13T09:17:59.907Z,19.81
2022-09-13T09:20:33.124Z,19.81
2022-09-13T09:23:04.032Z,19.86
2022-09-13T09:25:35.294Z,19.87
2022-09-13T09:28:10.955Z,19.90
2022-09-13T09:30:44.525Z,19.92
2022-09-13T09:33:28.488Z,19.95
2022-09-13T09:36:03.883Z,19.96
2022-09-13T09:38:39.701Z,19.98
2022-09-13T09:41:16.199Z,20.00
2022-09-13T09:43:45.941Z,20.02
2022-09-13T09:46:17.800Z,20.04
2022-09-13T09:48:49.550Z,20.06
2022-09-13T09:51:20.148Z,20.09
2022-09-13T09:53:51.842Z,20.11
2022-09-13T09:56:25.885Z,20.12
2022-09-13T09:58:55.846Z,20.12
2022-09-13T10:01:26.375Z,20.14
2022-09-13T10:04:01.787Z,20.17
2022-09-13T10:06:30.837Z,20.21
2022-09-13T10:09:02.149Z,20.24
2022-09-13T10:11:43.945Z,20.26
2022-09-13T10:14:31.187Z,20.28
2022-09-13T10:17:18.163Z,20.30
2022-09-13T10:19:57.648Z,20.33
2022-09-13T10:22:26.222Z,20.35
2022-09-13T10:24:54.293Z,20.38
2022-09-13T10:27:30.946Z,20.38
2022-09-13T10:30:00.599Z,20.44
2022-09-13T10:32:29.809Z,20.46
2022-09-13T10:35:02.690Z,20.48
2022-09-13T10:37:33.786Z,20.51
2022-09-13T10:40:07.366Z,20.53
2022-09-13T10:42:37.199Z,20.57
2022-09-13T10:45:07.661Z,20.59
2022-09-13T10:47:40.305Z,20.62
2022-09-13T10:50:20.604Z,20.65
2022-09-13T10:52:49.806Z,20.69
2022-09-13T10:55:35.982Z,20.71
2022-09-13T10:58:31.109Z,20.74
2022-09-13T11:01:40.275Z,20.78
2022-09-13T11:04:46.238Z,20.82
2022-09-13T11:07:35.288Z,20.85
2022-09-13T11:10:06.826Z,20.87
2022-09-13T11:12:44.519Z,20.91
2022-09-13T11:15:27.668Z,20.96
2022-09-13T11:18:10.450Z,21.01
2022-09-13T11:20:48.870Z,21.04
2022-09-13T11:23:42.275Z,21.07
2022-09-13T11:26:38.503Z,21.09
2022-09-13T11:29:19.909Z,21.13
2022-09-13T11:32:00.514Z,21.17
2022-09-13T11:34:44.606Z,21.19
2022-09-13T11:37:26.839Z,21.24
2022-09-13T11:40:04.009Z,21.29
2022-09-13T11:42:43.951Z,21.34
2022-09-13T11:45:25.955Z,21.35
2022-09-13T11:48:09.929Z,21.37
2022-09-13T11:50:47.592Z,21.39
2022-09-13T11:53:34.207Z,21.42
2022-09-13T11:56:05.220Z,21.45
2022-09-13T11:58:38.582Z,21.48
2022-09-13T12:01:09.687Z,21.51
2022-09-13T12:03:44.719Z,21.56
2022-09-13T12:06:16.850Z,21.59
2022-09-13T12:08:48.754Z,21.63
2022-09-13T12:11:21.058Z,21.66
2022-09-13T12:13:54.681Z,21.69
2022-09-13T12:16:26.876Z,21.71
2022-09-13T12:18:59.301Z,21.74
2022-09-13T12:21:32.399Z,21.74
2022-09-13T12:24:04.782Z,21.72
2022-09-13T12:26:37.294Z,21.75
2022-09-13T12:29:12.793Z,21.78
2022-09-13T12:31:40.651Z,21.82
2022-09-13T12:34:17.026Z,21.86
2022-09-13T12:37:05.638Z,21.87
2022-09-13T12:39:46.074Z,21.88
2022-09-13T12:42:53.359Z,21.93
2022-09-13T12:45:36.665Z,21.99
2022-09-13T12:48:25.536Z,22.01
2022-09-13T12:51:09.255Z,22.05
2022-09-13T12:54:11.238Z,22.11
2022-09-13T12:57:04.258Z,22.15
2022-09-13T12:59:44.779Z,22.19
2022-09-13T13:02:32.641Z,22.21
2022-09-13T13:05:05.179Z,22.23
2022-09-13T13:07:37.967Z,22.24
2022-09-13T13:10:06.798Z,22.26
2022-09-13T13:12:36.862Z,22.27
2022-09-13T13:15:08.081Z,22.29
2022-09-13T13:17:43.691Z,22.30
2022-09-13T13:20:45.948Z,22.31
2022-09-13T13:23:27.579Z,22.34
2022-09-13T13:26:00.826Z,22.35
2022-09-13T13:28:52.059Z,22.39
2022-09-13T13:31:37.937Z,22.37
2022-09-13T13:34:30.556Z,22.38
2022-09-13T13:37:02.273Z,22.39
2022-09-13T13:39:40.355Z,22.42
2022-09-13T13:42:25.554Z,22.47
2022-09-13T13:45:17.714Z,22.47
2022-09-13T13:48:20.629Z,22.48
2022-09-13T13:51:15.296Z,22.49
2022-09-13T13:53:46.196Z,22.49
2022-09-13T13:56:25.115Z,22.53
2022-09-13T13:58:57.557Z,22.54
2022-09-13T14:01:28.192Z,22.55
2022-09-13T14:04:33.274Z,22.56
2022-09-13T14:07:19.503Z,22.58
2022-09-13T14:09:52.526Z,22.57
2022-09-13T14:12:32.653Z,22.57
2022-09-13T14:15:15.619Z,22.56
2022-09-13T14:18:29.811Z,22.57
2022-09-13T14:21:01.962Z,22.52
2022-09-13T14:23:30.347Z,22.55
2022-09-13T14:26:00.166Z,22.56
2022-09-13T14:28:29.842Z,22.58
2022-09-13T14:30:59.513Z,22.58
2022-09-13T14:33:32.051Z,22.59
2022-09-13T14:36:04.003Z,22.59
2022-09-13T14:38:35.394Z,22.58
2022-09-13T14:41:14.186Z,22.60
2022-09-13T14:43:44.181Z,22.61
2022-09-13T14:46:18.736Z,22.60
2022-09-13T14:48:51.566Z,22.59
2022-09-13T14:51:23.543Z,22.59
2022-09-13T14:53:55.094Z,22.61
2022-09-13T14:56:33.879Z,22.60
2022-09-13T14:59:06.846Z,22.61
2022-09-13T15:01:36.547Z,22.59
2022-09-13T15:04:06.132Z,22.61
2022-09-13T15:06:35.367Z,22.60
2022-09-13T15:09:18.570Z,22.61
2022-09-13T15:11:58.564Z,22.61
2022-09-13T15:14:31.127Z,22.62
2022-09-13T15:17:08.946Z,22.62
2022-09-13T15:19:39.512Z,22.65
2022-09-13T15:22:15.160Z,22.64
2022-09-13T15:24:49.132Z,22.62
2022-09-13T15:27:20.289Z,22.64
2022-09-13T15:29:54.907Z,22.64
2022-09-13T15:32:25.440Z,22.65
2022-09-13T15:34:53.187Z,22.66
2022-09-13T15:37:31.547Z,22.65
2022-09-13T15:40:21.170Z,22.60
2022-09-13T15:42:50.493Z,22.64
2022-09-13T15:45:21.409Z,22.64
2022-09-13T15:47:50.410Z,22.65
2022-09-13T15:50:23.631Z,22.66
2022-09-13T15:52:51.266Z,22.67
2022-09-13T15:55:18.927Z,22.66
2022-09-13T15:57:47.194Z,22.67
2022-09-13T16:00:21.504Z,22.68
2022-09-13T16:02:49.208Z,22.67
2022-09-13T16:05:17.242Z,22.67
2022-09-13T16:07:46.887Z,22.67
2022-09-13T16:10:17.911Z,22.68
2022-09-13T16:12:45.929Z,22.66
2022-09-13T16:15:14.416Z,22.64
2022-09-13T16:17:43.530Z,22.63
2022-09-13T16:20:13.948Z,22.64
2022-09-13T16:22:41.718Z,22.62
2022-09-13T16:25:11.100Z,22.61
2022-09-13T16:27:38.939Z,22.60
2022-09-13T16:30:08.070Z,22.58
2022-09-13T16:32:35.709Z,22.57
2022-09-13T16:35:05.108Z,22.57
2022-09-13T16:37:32.738Z,22.55
2022-09-13T16:40:00.673Z,22.56
2022-09-13T16:42:28.645Z,22.55
2022-09-13T16:44:56.290Z,22.55
2022-09-13T16:47:24.000Z,22.55
2022-09-13T16:49:51.657Z,22.55
2022-09-13T16:52:20.706Z,22.55
2022-09-13T16:54:49.421Z,22.54
2022-09-13T16:57:17.059Z,22.55
2022-09-13T16:59:46.762Z,22.55
2022-09-13T17:02:14.673Z,22.54
2022-09-13T17:04:42.480Z,22.54
2022-09-13T17:07:10.153Z,22.53
2022-09-13T17:09:40.562Z,22.53
2022-09-13T17:12:08.890Z,22.52
2022-09-13T17:14:36.702Z,22.51
2022-09-13T17:17:08.743Z,22.49
2022-09-13T17:19:36.857Z,22.40
2022-09-13T17:22:08.074Z,22.51
2022-09-13T17:24:37.176Z,22.50
2022-09-13T17:27:07.927Z,22.49
2022-09-13T17:29:36.891Z,22.48
2022-09-13T17:32:06.757Z,22.48
2022-09-13T17:34:34.980Z,22.47
2022-09-13T17:37:03.840Z,22.48
2022-09-13T17:39:31.746Z,22.48
2022-09-13T17:41:59.614Z,22.48
2022-09-13T17:44:28.631Z,22.47
2022-09-13T17:46:56.423Z,22.46
2022-09-13T17:49:24.228Z,22.46
2022-09-13T17:51:51.853Z,22.44
2022-09-13T17:54:19.752Z,22.44
2022-09-13T17:56:47.404Z,22.43
2022-09-13T17:59:17.234Z,22.42
2022-09-13T18:01:48.175Z,22.43
2022-09-13T18:04:17.870Z,22.41
2022-09-13T18:06:45.964Z,22.42
2022-09-13T18:09:15.571Z,22.41
2022-09-13T18:11:43.668Z,22.34
2022-09-13T18:14:14.344Z,22.39
2022-09-13T18:16:42.630Z,22.36
2022-09-13T18:19:12.548Z,22.34
2022-09-13T18:21:40.464Z,22.33
2022-09-13T18:24:08.499Z,22.32
2022-09-13T18:26:36.745Z,22.29
2022-09-13T18:29:06.502Z,22.27
2022-09-13T18:31:36.262Z,22.27
2022-09-13T18:34:05.913Z,22.26
2022-09-13T18:36:36.177Z,22.25
2022-09-13T18:39:04.992Z,22.24
2022-09-13T18:41:35.160Z,22.22
2022-09-13T18:44:05.004Z,22.22
2022-09-13T18:46:34.305Z,22.22
2022-09-13T18:49:03.248Z,22.22
2022-09-13T18:51:33.448Z,22.20
2022-09-13T18:54:04.658Z,22.19
2022-09-13T18:56:33.746Z,22.17
2022-09-13T18:59:03.579Z,22.17
2022-09-13T19:01:34.880Z,22.16
2022-09-13T19:04:06.234Z,22.15
2022-09-13T19:06:38.901Z,22.12
2022-09-13T19:09:10.660Z,22.08
2022-09-13T19:11:48.983Z,22.06
2022-09-13T19:14:19.217Z,22.01
2022-09-13T19:16:48.384Z,22.01
2022-09-13T19:19:17.362Z,22.01
2022-09-13T19:21:46.079Z,22.00
2022-09-13T19:24:19.465Z,21.99
2022-09-13T19:26:50.755Z,21.98
2022-09-13T19:29:21.145Z,21.96
2022-09-13T19:31:50.218Z,21.95
2022-09-13T19:34:19.138Z,21.94
2022-09-13T19:36:49.112Z,21.90
2022-09-13T19:39:18.524Z,21.92
2022-09-13T19:41:46.365Z,21.90
2022-09-13T19:44:15.137Z,21.90
2022-09-13T19:46:43.708Z,21.86
2022-09-13T19:49:14.501Z,21.88
2022-09-13T19:51:45.500Z,21.87
2022-09-13T19:54:18.965Z,21.86
2022-09-13T19:56:46.934Z,21.84
2022-09-13T19:59:16.253Z,21.84
2022-09-13T20:01:45.768Z,21.81
2022-09-13T20:04:15.412Z,21.79
2022-09-13T20:06:45.310Z,21.78
2022-09-13T20:09:15.059Z,21.77
2022-09-13T20:11:45.441Z,21.76
2022-09-13T20:14:13.899Z,21.74
2022-09-13T20:16:43.549Z,21.71
2022-09-13T20:19:39.051Z,21.69
2022-09-13T20:22:03.222Z,21.66
2022-09-13T20:24:30.885Z,21.63
2022-09-13T20:26:59.897Z,21.60
2022-09-13T20:29:27.527Z,21.59
2022-09-13T20:31:55.628Z,21.57
2022-09-13T20:34:23.386Z,21.54
2022-09-13T20:36:50.989Z,21.51
2022-09-13T20:39:18.848Z,21.50
2022-09-13T20:41:49.260Z,21.47
2022-09-13T20:44:18.385Z,21.46
2022-09-13T20:46:46.108Z,21.43
2022-09-13T20:49:13.808Z,21.41
2022-09-13T20:51:41.484Z,21.40
2022-09-13T20:54:09.427Z,21.39
2022-09-13T20:56:37.113Z,21.36
2022-09-13T20:59:05.586Z,21.36
2022-09-13T21:01:35.140Z,21.34
2022-09-13T21:04:03.902Z,21.34
2022-09-13T21:06:39.016Z,21.32
2022-09-13T21:09:06.384Z,21.30
2022-09-13T21:11:35.951Z,21.29
2022-09-13T21:14:06.201Z,21.28
2022-09-13T21:16:37.541Z,21.27
2022-09-13T21:19:05.626Z,21.26
2022-09-13T21:21:36.088Z,21.24
2022-09-13T21:24:05.557Z,21.22
2022-09-13T21:26:33.700Z,21.23
2022-09-13T21:29:01.824Z,21.21
2022-09-13T21:31:32.474Z,21.21
2022-09-13T21:34:03.986Z,21.21
2022-09-13T21:36:34.552Z,21.19
2022-09-13T21:39:03.353Z,21.19
2022-09-13T21:41:31.357Z,21.18
2022-09-13T21:43:59.185Z,21.17
2022-09-13T21:46:28.376Z,21.13
2022-09-13T21:48:57.798Z,21.14
2022-09-13T21:51:28.113Z,21.13
2022-09-13T21:53:58.971Z,21.12
2022-09-13T21:56:29.445Z,21.10
2022-09-13T21:58:59.206Z,21.08
2022-09-13T22:01:28.850Z,21.08
2022-09-13T22:03:57.203Z,21.05
2022-09-13T22:06:32.646Z,21.05
2022-09-13T22:09:03.189Z,21.04
2022-09-13T22:11:32.811Z,21.03
2022-09-13T22:14:02.389Z,21.02
2022-09-13T22:16:32.718Z,21.01
2022-09-13T22:19:07.981Z,20.98
2022-09-13T22:21:41.015Z,20.98
2022-09-13T22:24:10.751Z,20.96
2022-09-13T22:26:40.623Z,20.94
2022-09-13T22:29:09.698Z,20.93
2022-09-13T22:31:40.249Z,20.92
2022-09-13T22:34:08.866Z,20.91
2022-09-13T22:36:37.862Z,20.89
2022-09-13T22:39:05.816Z,20.87
2022-09-13T22:41:34.780Z,20.85
2022-09-13T22:44:03.622Z,20.82
2022-09-13T22:46:33.627Z,20.83
2022-09-13T22:49:01.915Z,20.81
2022-09-13T22:51:29.994Z,20.79
2022-09-13T22:54:01.374Z,20.78
2022-09-13T22:56:34.782Z,20.76
2022-09-13T22:59:04.459Z,20.76
2022-09-13T23:01:32.748Z,20.72
2022-09-13T23:04:01.239Z,20.73
2022-09-13T23:06:29.818Z,20.72
2022-09-13T23:09:00.926Z,20.70
2022-09-13T23:11:30.107Z,20.70
2022-09-13T23:14:01.268Z,20.68
2022-09-13T23:16:31.026Z,20.66
2022-09-13T23:19:00.089Z,20.65
2022-09-13T23:21:29.945Z,20.65
2022-09-13T23:23:58.778Z,20.63
2022-09-13T23:26:27.932Z,20.60
2022-09-13T23:29:00.766Z,20.61
2022-09-13T23:31:31.496Z,20.60
2022-09-13T23:34:01.852Z,20.57
2022-09-13T23:36:31.211Z,20.57
2022-09-13T23:39:02.766Z,20.56
2022-09-13T23:41:33.108Z,20.53
2022-09-13T23:44:01.073Z,20.52
2022-09-13T23:46:29.351Z,20.52
2022-09-13T23:48:57.321Z,20.51
2022-09-13T23:51:26.450Z,20.49
2022-09-13T23:53:56.795Z,20.48
2022-09-13T23:56:25.691Z,20.46
2022-09-13T23:58:56.605Z,20.45
